createdAt,value
2023-04-07T00:01:18.073Z,101545.22
2023-04-07T00:03:45.304Z,101546.03
2023-04-07T00:06:12.535Z,101542.75
2023-04-07T00:08:39.516Z,101544.09
2023-04-07T00:11:07.158Z,101536.81
2023-04-07T00:13:35.401Z,101545.13
2023-04-07T00:16:02.506Z,101538.50
2023-04-07T00:18:29.437Z,101542.50
2023-04-07T00:20:56.901Z,101534.22
2023-04-07T00:23:23.854Z,101538.53
2023-04-07T00:25:50.926Z,101546.13
2023-04-07T00:28:17.850Z,101537.06
2023-04-07T00:30:46.221Z,101547.50
2023-04-07T00:33:13.178Z,101545.34
2023-04-07T00:35:40.210Z,101541.94
2023-04-07T00:38:07.138Z,101546.56
2023-04-07T00:40:34.333Z,101544.91
2023-04-07T00:43:01.266Z,101549.84
2023-04-07T00:45:28.238Z,101535.66
2023-04-07T00:47:58.026Z,101536.81
2023-04-07T00:50:25.448Z,101540.31
2023-04-07T00:52:54.481Z,101539.66
2023-04-07T00:55:21.535Z,101546.75
2023-04-07T00:57:48.520Z,101546.09
2023-04-07T01:00:16.052Z,101544.28
2023-04-07T01:02:52.438Z,101541.47
2023-04-07T01:05:28.596Z,101539.81
2023-04-07T01:08:08.709Z,101545.28
2023-04-07T01:10:43.900Z,101543.63
2023-04-07T01:13:24.062Z,101540.97
2023-04-07T01:15:56.997Z,101541.47
2023-04-07T01:18:30.941Z,101537.84
2023-04-07T01:21:06.374Z,101535.03
2023-04-07T01:24:03.578Z,101541.78
2023-04-07T01:26:33.487Z,101540.63
2023-04-07T01:29:27.793Z,101537.34
2023-04-07T01:31:58.218Z,101530.75
2023-04-07T01:34:27.557Z,101537.66
2023-04-07T01:36:57.239Z,101535.66
2023-04-07T01:39:26.991Z,101532.06
2023-04-07T01:41:56.112Z,101532.88
2023-04-07T01:44:25.683Z,101525.63
2023-04-07T01:46:53.991Z,101529.09
2023-04-07T01:49:21.977Z,101533.34
2023-04-07T01:51:50.497Z,101535.03
2023-04-07T01:54:18.690Z,101535.03
2023-04-07T01:56:45.897Z,101533.34
2023-04-07T01:59:12.914Z,101537.00
2023-04-07T02:01:41.501Z,101538.97
2023-04-07T02:04:16.540Z,101534.38
2023-04-07T02:06:52.579Z,101537.69
2023-04-07T02:09:22.519Z,101538.50
2023-04-07T02:11:52.870Z,101534.72
2023-04-07T02:14:22.615Z,101534.38
2023-04-07T02:16:52.917Z,101540.00
2023-04-07T02:19:20.888Z,101537.03
2023-04-07T02:21:52.057Z,101532.91
2023-04-07T02:24:23.497Z,101528.78
2023-04-07T02:26:50.491Z,101525.47
2023-04-07T02:29:17.592Z,101531.25
2023-04-07T02:31:44.648Z,101528.75
2023-04-07T02:34:12.987Z,101540.00
2023-04-07T02:36:39.925Z,101528.44
2023-04-07T02:39:09.212Z,101538.16
2023-04-07T02:41:36.273Z,101532.72
2023-04-07T02:44:03.186Z,101538.81
2023-04-07T02:46:30.239Z,101538.31
2023-04-07T02:48:57.246Z,101543.28
2023-04-07T02:51:27.035Z,101536.69
2023-04-07T02:53:54.180Z,101539.00
2023-04-07T02:56:21.278Z,101536.38
2023-04-07T02:58:48.276Z,101536.69
2023-04-07T03:01:15.393Z,101543.94
2023-04-07T03:03:44.741Z,101547.72
2023-04-07T03:06:11.743Z,101542.94
2023-04-07T03:08:40.234Z,101546.72
2023-04-07T03:11:07.172Z,101545.53
2023-04-07T03:13:34.112Z,101539.91
2023-04-07T03:16:01.046Z,101546.66
2023-04-07T03:18:28.116Z,101548.59
2023-04-07T03:20:57.087Z,101547.81
2023-04-07T03:23:24.186Z,101547.81
2023-04-07T03:25:52.649Z,101545.00
2023-04-07T03:28:19.767Z,101533.63
2023-04-07T03:30:46.826Z,101540.56
2023-04-07T03:33:14.009Z,101539.19
2023-04-07T03:35:41.191Z,101540.34
2023-04-07T03:38:08.310Z,101537.88
2023-04-07T03:40:35.727Z,101538.19
2023-04-07T03:43:04.138Z,101546.44
2023-04-07T03:45:31.117Z,101539.81
2023-04-07T03:47:58.045Z,101543.78
2023-04-07T03:50:25.271Z,101540.66
2023-04-07T03:52:52.332Z,101550.50
2023-04-07T03:55:19.258Z,101552.63
2023-04-07T03:57:46.860Z,101556.25
2023-04-07T04:00:15.809Z,101549.34
2023-04-07T04:02:42.823Z,101559.88
2023-04-07T04:05:09.838Z,101556.25
2023-04-07T04:07:36.806Z,101554.63
2023-04-07T04:10:04.100Z,101557.56
2023-04-07T04:12:31.412Z,101558.53
2023-04-07T04:14:58.430Z,101563.78
2023-04-07T04:17:26.905Z,101569.22
2023-04-07T04:19:55.148Z,101570.06
2023-04-07T04:22:22.169Z,101567.44
2023-04-07T04:24:49.110Z,101573.66
2023-04-07T04:27:16.359Z,101575.63
2023-04-07T04:29:43.226Z,101572.34
2023-04-07T04:32:10.300Z,101572.66
2023-04-07T04:34:39.475Z,101579.88
2023-04-07T04:37:06.488Z,101580.19
2023-04-07T04:39:33.460Z,101584.78
2023-04-07T04:42:01.104Z,101577.19
2023-04-07T04:44:30.045Z,101590.53
2023-04-07T04:46:57.180Z,101596.94
2023-04-07T04:49:24.129Z,101603.22
2023-04-07T04:51:52.351Z,101598.91
2023-04-07T04:54:19.824Z,101603.50
2023-04-07T04:56:46.673Z,101607.13
2023-04-07T04:59:13.601Z,101601.84
2023-04-07T05:01:40.574Z,101605.47
2023-04-07T05:04:09.357Z,101606.28
2023-04-07T05:06:36.505Z,101609.91
2023-04-07T05:09:04.794Z,101616.00
2023-04-07T05:11:31.741Z,101622.91
2023-04-07T05:13:58.666Z,101612.38
2023-04-07T05:16:26.533Z,101620.28
2023-04-07T05:18:53.576Z,101629.00
2023-04-07T05:21:21.930Z,101630.81
2023-04-07T05:23:48.847Z,101633.44
2023-04-07T05:26:17.109Z,101630.81
2023-04-07T05:28:44.014Z,101628.84
2023-04-07T05:31:11.233Z,101630.50
2023-04-07T05:33:38.218Z,101628.56
2023-04-07T05:36:06.696Z,101623.94
2023-04-07T05:38:33.931Z,101634.19
2023-04-07T05:41:01.112Z,101628.75
2023-04-07T05:43:29.384Z,101633.88
2023-04-07T05:45:56.542Z,101637.84
2023-04-07T05:48:23.449Z,101645.28
2023-04-07T05:50:50.423Z,101636.25
2023-04-07T05:53:17.391Z,101639.25
2023-04-07T05:55:44.423Z,101647.81
2023-04-07T05:58:11.353Z,101649.13
2023-04-07T06:00:41.472Z,101659.53
2023-04-07T06:03:08.533Z,101659.38
2023-04-07T06:05:35.583Z,101658.25
2023-04-07T06:08:02.678Z,101658.75
2023-04-07T06:10:29.687Z,101660.09
2023-04-07T06:12:56.744Z,101663.91
2023-04-07T06:15:24.082Z,101667.72
2023-04-07T06:17:52.400Z,101664.78
2023-04-07T06:20:21.596Z,101672.69
2023-04-07T06:22:48.658Z,101673.34
2023-04-07T06:25:15.802Z,101683.75
2023-04-07T06:27:42.734Z,101686.59
2023-04-07T06:30:11.429Z,101682.81
2023-04-07T06:32:38.344Z,101681.22
2023-04-07T06:35:07.850Z,101684.34
2023-04-07T06:37:34.825Z,101688.66
2023-04-07T06:40:01.750Z,101689.00
2023-04-07T06:42:28.694Z,101698.56
2023-04-07T06:44:55.611Z,101690.03
2023-04-07T06:47:22.658Z,101697.94
2023-04-07T06:49:49.549Z,101693.19
2023-04-07T06:52:17.820Z,101699.34
2023-04-07T06:54:44.856Z,101705.31
2023-04-07T06:57:12.150Z,101695.41
2023-04-07T06:59:39.303Z,101705.81
2023-04-07T07:02:07.577Z,101710.78
2023-04-07T07:04:35.024Z,101708.81
2023-04-07T07:07:03.143Z,101708.00
2023-04-07T07:09:31.530Z,101707.84
2023-04-07T07:11:58.607Z,101713.63
2023-04-07T07:14:26.019Z,101716.25
2023-04-07T07:16:52.952Z,101716.16
2023-04-07T07:19:20.184Z,101710.28
2023-04-07T07:21:47.143Z,101720.47
2023-04-07T07:24:14.486Z,101726.56
2023-04-07T07:26:44.536Z,101723.16
2023-04-07T07:29:11.654Z,101726.53
2023-04-07T07:31:38.729Z,101728.94
2023-04-07T07:34:07.446Z,101732.38
2023-04-07T07:36:34.616Z,101729.50
2023-04-07T07:39:01.672Z,101731.31
2023-04-07T07:41:29.165Z,101736.63
2023-04-07T07:43:57.385Z,101731.34
2023-04-07T07:46:26.098Z,101737.03
2023-04-07T07:48:53.452Z,101742.78
2023-04-07T07:51:20.447Z,101732.59
2023-04-07T07:53:47.667Z,101743.72
2023-04-07T07:56:14.841Z,101748.75
2023-04-07T07:58:41.816Z,101750.81
2023-04-07T08:01:10.374Z,101750.44
2023-04-07T08:03:38.048Z,101752.00
2023-04-07T08:06:06.382Z,101749.91
2023-04-07T08:08:33.354Z,101748.06
2023-04-07T08:11:00.608Z,101751.94
2023-04-07T08:13:27.734Z,101749.34
2023-04-07T08:15:54.830Z,101752.69
2023-04-07T08:18:25.251Z,101761.09
2023-04-07T08:20:52.699Z,101762.16
2023-04-07T08:23:19.808Z,101753.19
2023-04-07T08:25:46.745Z,101759.81
2023-04-07T08:28:13.682Z,101756.13
2023-04-07T08:30:40.647Z,101754.09
2023-04-07T08:33:07.798Z,101765.59
2023-04-07T08:35:36.580Z,101765.66
2023-04-07T08:38:03.949Z,101768.13
2023-04-07T08:40:32.761Z,101764.66
2023-04-07T08:43:03.063Z,101769.53
2023-04-07T08:45:32.581Z,101771.16
2023-04-07T08:48:04.759Z,101777.66
2023-04-07T08:50:33.273Z,101779.56
2023-04-07T08:53:08.942Z,101773.88
2023-04-07T08:55:36.418Z,101774.88
2023-04-07T08:58:04.172Z,101774.81
2023-04-07T09:00:31.825Z,101781.34
2023-04-07T09:03:03.340Z,101775.38
2023-04-07T09:05:32.418Z,101784.31
2023-04-07T09:08:02.403Z,101777.53
2023-04-07T09:10:29.493Z,101778.28
2023-04-07T09:12:58.759Z,101790.38
2023-04-07T09:15:30.698Z,101773.28
2023-04-07T09:17:58.341Z,101783.59
2023-04-07T09:20:25.838Z,101776.03
2023-04-07T09:22:52.953Z,101784.19
2023-04-07T09:25:23.998Z,101782.50
2023-04-07T09:27:59.533Z,101781.38
2023-04-07T09:30:27.883Z,101776.44
2023-04-07T09:32:55.864Z,101785.44
2023-04-07T09:35:23.842Z,101784.06
2023-04-07T09:38:07.644Z,101785.56
2023-04-07T09:40:37.520Z,101776.63
2023-04-07T09:43:17.682Z,101781.13
2023-04-07T09:45:44.924Z,101777.19
2023-04-07T09:48:20.656Z,101780.38
2023-04-07T09:50:51.842Z,101782.00
2023-04-07T09:53:23.118Z,101778.00
2023-04-07T09:55:52.751Z,101783.84
2023-04-07T09:58:20.563Z,101775.28
2023-04-07T10:00:48.150Z,101771.66
2023-04-07T10:03:15.710Z,101780.16
2023-04-07T10:05:44.463Z,101783.97
2023-04-07T10:08:12.165Z,101787.44
2023-04-07T10:10:43.109Z,101781.03
2023-04-07T10:13:12.637Z,101788.34
2023-04-07T10:15:40.562Z,101793.41
2023-04-07T10:18:08.828Z,101783.09
2023-04-07T10:20:39.443Z,101792.53
2023-04-07T10:23:18.936Z,101794.63
2023-04-07T10:25:48.780Z,101787.56
2023-04-07T10:28:20.561Z,101789.13
2023-04-07T10:30:49.943Z,101793.69
2023-04-07T10:33:18.641Z,101782.28
2023-04-07T10:36:05.379Z,101788.56
2023-04-07T10:38:32.816Z,101789.56
2023-04-07T10:40:59.960Z,101792.81
2023-04-07T10:43:42.040Z,101783.69
2023-04-07T10:46:09.263Z,101781.09
2023-04-07T10:48:36.594Z,101786.06
2023-04-07T10:51:19.674Z,101792.84
2023-04-07T10:54:21.105Z,101795.97
2023-04-07T10:57:16.911Z,101800.13
2023-04-07T11:00:16.406Z,101792.03
2023-04-07T11:02:44.622Z,101796.69
2023-04-07T11:05:22.692Z,101792.41
2023-04-07T11:07:55.146Z,101797.66
2023-04-07T11:10:23.188Z,101798.28
2023-04-07T11:13:06.257Z,101802.53
2023-04-07T11:15:40.616Z,101799.84
2023-04-07T11:18:19.743Z,101799.63
2023-04-07T11:20:50.717Z,101801.22
2023-04-07T11:23:20.774Z,101809.72
2023-04-07T11:25:50.777Z,101802.16
2023-04-07T11:28:18.696Z,101802.59
2023-04-07T11:30:52.079Z,101802.41
2023-04-07T11:33:22.086Z,101799.63
2023-04-07T11:35:55.859Z,101803.03
2023-04-07T11:38:26.093Z,101810.53
2023-04-07T11:40:54.469Z,101803.31
2023-04-07T11:43:24.758Z,101799.63
2023-04-07T11:46:10.797Z,101803.03
2023-04-07T11:48:40.006Z,101808.66
2023-04-07T11:51:16.317Z,101815.09
2023-04-07T11:53:43.572Z,101806.88
2023-04-07T11:56:17.576Z,101807.84
2023-04-07T11:58:48.611Z,101807.72
2023-04-07T12:01:17.799Z,101807.47
2023-04-07T12:03:59.904Z,101805.53
2023-04-07T12:06:34.899Z,101803.06
2023-04-07T12:09:03.340Z,101804.00
2023-04-07T12:11:31.766Z,101802.28
2023-04-07T12:13:59.372Z,101809.97
2023-04-07T12:16:27.769Z,101798.78
2023-04-07T12:18:55.113Z,101806.25
2023-04-07T12:21:22.060Z,101804.09
2023-04-07T12:23:49.235Z,101801.47
2023-04-07T12:26:16.421Z,101799.84
2023-04-07T12:28:43.464Z,101808.50
2023-04-07T12:31:10.963Z,101805.88
2023-04-07T12:33:39.251Z,101804.78
2023-04-07T12:36:06.995Z,101805.28
2023-04-07T12:38:33.955Z,101804.09
2023-04-07T12:41:03.406Z,101808.88
2023-04-07T12:43:30.986Z,101810.56
2023-04-07T12:45:58.400Z,101812.91
2023-04-07T12:48:27.280Z,101810.78
2023-04-07T12:50:55.685Z,101799.19
2023-04-07T12:53:22.754Z,101797.00
2023-04-07T12:55:50.521Z,101821.59
2023-04-07T12:58:18.420Z,101816.22
2023-04-07T13:00:46.827Z,101814.03
2023-04-07T13:03:14.253Z,101821.91
2023-04-07T13:05:41.422Z,101808.84
2023-04-07T13:08:10.377Z,101810.78
2023-04-07T13:10:37.439Z,101817.25
2023-04-07T13:13:04.324Z,101819.34
2023-04-07T13:15:31.431Z,101821.13
2023-04-07T13:17:58.942Z,101814.81
2023-04-07T13:20:28.150Z,101811.88
2023-04-07T13:23:06.957Z,101823.13
2023-04-07T13:25:37.402Z,101814.81
2023-04-07T13:28:04.928Z,101814.63
2023-04-07T13:30:32.350Z,101805.81
2023-04-07T13:32:59.475Z,101810.63
2023-04-07T13:35:26.595Z,101816.13
2023-04-07T13:37:53.671Z,101814.41
2023-04-07T13:40:20.623Z,101818.75
2023-04-07T13:42:48.844Z,101816.81
2023-04-07T13:45:15.762Z,101816.50
2023-04-07T13:47:42.760Z,101817.13
2023-04-07T13:50:10.788Z,101821.00
2023-04-07T13:52:37.701Z,101822.00
2023-04-07T13:55:06.048Z,101812.25
2023-04-07T13:57:33.092Z,101819.72
2023-04-07T14:00:01.757Z,101818.19
2023-04-07T14:02:30.258Z,101820.50
2023-04-07T14:04:57.753Z,101819.72
2023-04-07T14:07:24.662Z,101820.31
2023-04-07T14:09:51.576Z,101809.72
2023-04-07T14:12:21.278Z,101812.03
2023-04-07T14:14:52.023Z,101812.84
2023-04-07T14:17:20.516Z,101809.28
2023-04-07T14:19:48.134Z,101814.78
2023-04-07T14:22:15.295Z,101810.91
2023-04-07T14:24:42.233Z,101814.53
2023-04-07T14:27:09.224Z,101813.16
2023-04-07T14:29:36.427Z,101813.53
2023-04-07T14:32:04.106Z,101807.31
2023-04-07T14:34:32.868Z,101812.84
2023-04-07T14:36:59.918Z,101807.19
2023-04-07T14:39:26.864Z,101816.47
2023-04-07T14:41:54.097Z,101804.69
2023-04-07T14:44:21.301Z,101811.88
2023-04-07T14:46:48.348Z,101805.91
2023-04-07T14:49:15.472Z,101807.81
2023-04-07T14:51:44.508Z,101810.72
2023-04-07T14:54:11.402Z,101812.72
2023-04-07T14:56:38.426Z,101813.97
2023-04-07T14:59:05.633Z,101815.13
2023-04-07T15:01:32.708Z,101821.06
2023-04-07T15:04:00.797Z,101828.50
2023-04-07T15:06:28.005Z,101829.16
2023-04-07T15:08:56.350Z,101831.47
2023-04-07T15:11:23.284Z,101833.00
2023-04-07T15:13:50.634Z,101829.41
2023-04-07T15:16:18.106Z,101828.44
2023-04-07T15:18:47.031Z,101835.81
2023-04-07T15:21:15.213Z,101834.22
2023-04-07T15:23:42.670Z,101838.13
2023-04-07T15:26:11.235Z,101832.25
2023-04-07T15:28:38.585Z,101833.69
2023-04-07T15:31:09.859Z,101832.31
2023-04-07T15:33:38.706Z,101835.50
2023-04-07T15:36:07.401Z,101839.56
2023-04-07T15:38:34.402Z,101836.22
2023-04-07T15:41:01.391Z,101838.34
2023-04-07T15:43:29.853Z,101853.03
2023-04-07T15:45:56.864Z,101847.81
2023-04-07T15:48:24.112Z,101848.09
2023-04-07T15:50:51.893Z,101848.41
2023-04-07T15:53:18.878Z,101843.88
2023-04-07T15:55:45.834Z,101853.03
2023-04-07T15:58:12.802Z,101858.19
2023-04-07T16:00:41.679Z,101857.91
2023-04-07T16:03:08.837Z,101867.03
2023-04-07T16:05:37.817Z,101862.19
2023-04-07T16:08:05.002Z,101859.41
2023-04-07T16:10:31.968Z,101854.97
2023-04-07T16:12:58.907Z,101863.94
2023-04-07T16:18:01.017Z,101871.78
2023-04-07T16:20:28.041Z,101866.75
2023-04-07T16:22:55.782Z,101877.03
2023-04-07T16:25:23.073Z,101875.31
2023-04-07T16:27:52.909Z,101879.88
2023-04-07T16:30:20.905Z,101873.44
2023-04-07T16:32:47.954Z,101881.97
2023-04-07T16:35:16.688Z,101882.53
2023-04-07T16:37:46.411Z,101879.66
2023-04-07T16:40:13.806Z,101885.19
2023-04-07T16:42:40.956Z,101875.88
2023-04-07T16:45:08.880Z,101885.31
2023-04-07T16:47:37.741Z,101891.84
2023-04-07T16:50:05.901Z,101891.84
2023-04-07T16:52:34.136Z,101894.75
2023-04-07T16:55:01.259Z,101896.88
2023-04-07T16:57:28.579Z,101898.13
2023-04-07T16:59:55.636Z,101904.28
2023-04-07T17:02:22.846Z,101906.34
2023-04-07T17:04:50.078Z,101909.28
2023-04-07T17:07:17.181Z,101910.34
2023-04-07T17:09:45.591Z,101912.59
2023-04-07T17:12:13.612Z,101923.75
2023-04-07T17:14:40.685Z,101918.41
2023-04-07T17:17:07.632Z,101932.38
2023-04-07T17:19:35.553Z,101934.06
2023-04-07T17:22:02.531Z,101937.34
2023-04-07T17:24:29.474Z,101936.75
2023-04-07T17:26:57.821Z,101936.13
2023-04-07T17:29:28.837Z,101938.19
2023-04-07T17:31:56.594Z,101952.25
2023-04-07T17:34:23.610Z,101946.44
2023-04-07T17:36:51.570Z,101955.94
2023-04-07T17:39:18.574Z,101955.50
2023-04-07T17:41:46.840Z,101957.09
2023-04-07T17:44:15.562Z,101962.78
2023-04-07T17:46:42.632Z,101966.84
2023-04-07T17:49:09.954Z,101972.16
2023-04-07T17:51:37.388Z,101973.34
2023-04-07T17:54:04.473Z,101977.84
2023-04-07T17:56:31.500Z,101975.09
2023-04-07T17:58:58.639Z,101975.03
2023-04-07T18:01:27.114Z,101977.56
2023-04-07T18:03:54.352Z,101991.06
2023-04-07T18:06:21.866Z,101993.88
2023-04-07T18:08:49.155Z,101990.94
2023-04-07T18:11:17.260Z,102002.00
2023-04-07T18:13:44.798Z,102006.91
2023-04-07T18:16:17.295Z,102016.06
2023-04-07T18:18:47.605Z,102023.88
2023-04-07T18:21:14.668Z,102031.47
2023-04-07T18:23:41.584Z,102040.50
2023-04-07T18:26:08.542Z,102048.91
2023-04-07T18:28:35.805Z,102045.78
2023-04-07T18:31:06.377Z,102051.03
2023-04-07T18:33:34.119Z,102054.16
2023-04-07T18:36:04.917Z,102057.63
2023-04-07T18:38:31.952Z,102066.44
2023-04-07T18:40:59.209Z,102074.34
2023-04-07T18:43:26.534Z,102076.00
2023-04-07T18:45:53.468Z,102083.72
2023-04-07T18:48:21.530Z,102076.00
2023-04-07T18:50:52.570Z,102085.56
2023-04-07T18:53:22.867Z,102084.28
2023-04-07T18:55:50.342Z,102093.94
2023-04-07T18:58:17.358Z,102090.63
2023-04-07T19:00:44.596Z,102101.25
2023-04-07T19:03:12.138Z,102107.25
2023-04-07T19:05:40.115Z,102104.44
2023-04-07T19:08:07.942Z,102111.88
2023-04-07T19:10:36.213Z,102115.81
2023-04-07T19:13:04.387Z,102111.81
2023-04-07T19:15:34.256Z,102119.31
2023-04-07T19:18:02.413Z,102115.84
2023-04-07T19:20:33.755Z,102120.69
2023-04-07T19:23:01.673Z,102118.72
2023-04-07T19:25:28.821Z,102123.25
2023-04-07T19:27:57.563Z,102132.19
2023-04-07T19:30:24.729Z,102132.03
2023-04-07T19:32:52.229Z,102140.50
2023-04-07T19:35:19.585Z,102136.72
2023-04-07T19:37:48.083Z,102138.75
2023-04-07T19:40:15.522Z,102153.69
2023-04-07T19:42:42.674Z,102139.28
2023-04-07T19:45:11.409Z,102142.28
2023-04-07T19:47:39.043Z,102141.31
2023-04-07T19:50:08.720Z,102160.69
2023-04-07T19:52:35.681Z,102165.00
2023-04-07T19:55:03.669Z,102163.19
2023-04-07T19:57:34.030Z,102166.50
2023-04-07T20:00:00.935Z,102164.84
2023-04-07T20:02:29.299Z,102166.84
2023-04-07T20:04:57.223Z,102175.78
2023-04-07T20:07:24.097Z,102164.16
2023-04-07T20:09:51.568Z,102171.78
2023-04-07T20:12:18.551Z,102177.06
2023-04-07T20:14:45.727Z,102189.94
2023-04-07T20:17:12.790Z,102180.81
2023-04-07T20:19:41.768Z,102182.31
2023-04-07T20:22:09.409Z,102182.81
2023-04-07T20:24:37.080Z,102191.56
2023-04-07T20:27:04.499Z,102191.88
2023-04-07T20:29:31.402Z,102193.19
2023-04-07T20:31:58.430Z,102195.47
2023-04-07T20:34:25.752Z,102197.59
2023-04-07T20:36:54.057Z,102215.63
2023-04-07T20:39:20.956Z,102209.81
2023-04-07T20:41:47.952Z,102213.78
2023-04-07T20:44:14.944Z,102221.06
2023-04-07T20:46:43.710Z,102225.19
2023-04-07T20:49:10.774Z,102221.88
2023-04-07T20:51:37.791Z,102228.63
2023-04-07T20:54:06.139Z,102227.78
2023-04-07T20:56:33.133Z,102220.63
2023-04-07T20:59:00.052Z,102221.81
2023-04-07T21:01:27.132Z,102226.56
2023-04-07T21:03:54.859Z,102228.56
2023-04-07T21:06:21.841Z,102230.53
2023-04-07T21:08:49.135Z,102224.72
2023-04-07T21:11:17.693Z,102228.34
2023-04-07T21:13:44.622Z,102232.94
2023-04-07T21:16:11.629Z,102228.66
2023-04-07T21:18:38.697Z,102230.63
2023-04-07T21:21:07.991Z,102235.56
2023-04-07T21:23:35.012Z,102238.50
2023-04-07T21:26:03.143Z,102233.22
2023-04-07T21:28:31.489Z,102238.81
2023-04-07T21:30:58.516Z,102235.50
2023-04-07T21:33:25.603Z,102232.19
2023-04-07T21:35:52.944Z,102241.13
2023-04-07T21:38:19.908Z,102246.72
2023-04-07T21:40:46.873Z,102241.72
2023-04-07T21:43:13.786Z,102242.69
2023-04-07T21:45:41.986Z,102252.28
2023-04-07T21:48:09.091Z,102247.84
2023-04-07T21:50:36.880Z,102248.34
2023-04-07T21:53:03.837Z,102243.41
2023-04-07T21:55:30.878Z,102240.03
2023-04-07T21:57:58.145Z,102242.03
2023-04-07T22:00:25.192Z,102241.50
2023-04-07T22:02:54.568Z,102244.28
2023-04-07T22:05:22.005Z,102243.50
2023-04-07T22:07:49.184Z,102239.00
2023-04-07T22:10:16.606Z,102243.63
2023-04-07T22:12:43.708Z,102242.66
2023-04-07T22:15:12.874Z,102242.66
2023-04-07T22:17:40.221Z,102249.56
2023-04-07T22:20:11.342Z,102250.41
2023-04-07T22:22:39.002Z,102247.78
2023-04-07T22:25:07.130Z,102254.56
2023-04-07T22:27:35.258Z,102254.44
2023-04-07T22:30:02.916Z,102251.78
2023-04-07T22:32:30.818Z,102259.56
2023-04-07T22:34:58.095Z,102257.88
2023-04-07T22:37:26.350Z,102262.19
2023-04-07T22:39:53.434Z,102260.38
2023-04-07T22:42:20.349Z,102254.09
2023-04-07T22:44:47.216Z,102254.94
2023-04-07T22:47:14.283Z,102256.28
2023-04-07T22:49:41.936Z,102261.94
2023-04-07T22:52:09.196Z,102255.22
2023-04-07T22:54:37.513Z,102262.69
2023-04-07T22:57:04.775Z,102262.38
2023-04-07T22:59:31.748Z,102268.50
2023-04-07T23:01:58.816Z,102269.47
2023-04-07T23:04:25.947Z,102265.31
2023-04-07T23:06:53.171Z,102262.69
2023-04-07T23:09:20.194Z,102267.97
2023-04-07T23:11:48.788Z,102262.69
2023-04-07T23:14:16.365Z,102265.63
2023-04-07T23:16:43.313Z,102266.63
2023-04-07T23:19:15.604Z,102268.44
2023-04-07T23:21:43.297Z,102269.09
2023-04-07T23:24:10.325Z,102270.31
2023-04-07T23:26:37.326Z,102268.84
2023-04-07T23:29:05.723Z,102272.03
2023-04-07T23:31:32.654Z,102269.06
2023-04-07T23:33:59.816Z,102274.03
2023-04-07T23:36:27.131Z,102270.25
2023-04-07T23:38:54.856Z,102270.72
2023-04-07T23:41:22.086Z,102270.34
2023-04-07T23:43:49.019Z,102263.72
2023-04-07T23:46:17.326Z,102269.84
2023-04-07T23:48:44.373Z,102272.97
2023-04-07T23:51:12.634Z,102270.44
2023-04-07T23:53:39.584Z,102270.78
2023-04-07T23:56:07.252Z,102264.66
2023-04-07T23:58:34.137Z,102274.56
